Fort Pike — WAA9418 — position and weather

sailwx.info

Track history (hours):
 
Tides and Currents Weather Stations Pressure Air Temp Water Temp Dewpoint Dewpoint Depression Visibility Wind Speed Wind Dir Waves Ship Positions

Fort Pike

Owner: Salisbury Towing Corporation, Chesapeak, VA. More information available from US FCC via Universal Licensing System and Coast Guard Vessel Documentation Center.

Last reported at 2016-Aug-27 08:32 UTC. Time now 2016-Aug-27 11:45 UTC.
Position N 38°05' W 076°30'.

Length 18 m; draft 10.5 m.

Type: Tug. MMSI: 366948310.

Date/timePositionNaut miles runAvg speedWind from/ knotsBaromVisibWave heightAir tempDewpointWater temp
2016-Aug-27 08:32N 38°05' W 076°30'6 6.2
2016-Aug-27 07:33N 38°02' W 076°23'79 1.9
2016-Aug-25 14:28N 39°20' W 076°12'6 6.7
2016-Aug-25 13:33N 39°23' W 076°06'5 5.3
2016-Aug-25 12:34N 39°28' W 076°03'5 5.1
2016-Aug-25 11:34N 39°33' W 076°04'0 0.0
2016-Aug-25 10:33N 39°33' W 076°04'0 0.0
2016-Aug-25 09:33N 39°33' W 076°04'0 0.1
2016-Aug-25 08:34N 39°33' W 076°04'0 0.0
2016-Aug-25 07:33N 39°33' W 076°04'0 0.4
2016-Aug-25 06:33N 39°33' W 076°05'11 5.5
2016-Aug-25 04:34N 39°22' W 076°08'9 7.6
2016-Aug-25 03:19N 39°14' W 076°15'72 6.6
2016-Aug-24 16:20N 38°02' W 076°17'5 6.5
2016-Aug-24 15:33N 38°01' W 076°23'8 1.4
2016-Aug-24 09:31N 38°06' W 076°32'8 7.9
2016-Aug-24 08:32N 38°02' W 076°24'70 6.4
2016-Aug-23 21:32N 36°51' W 076°19'2 1.5
2016-Aug-23 20:32N 36°50' W 076°17'0 0.0
2016-Aug-23 19:32N 36°50' W 076°17'0 0.0
2016-Aug-23 18:32N 36°50' W 076°17'0 0.0
2016-Aug-23 17:32N 36°50' W 076°17'0 0.0
2016-Aug-23 16:32N 36°50' W 076°17'1 1.1
2016-Aug-23 15:28N 36°49' W 076°17'1 1.2
2016-Aug-23 14:28N 36°50' W 076°17'1 1.1
2016-Aug-23 13:30N 36°50' W 076°16'3 3.4
2016-Aug-23 12:31N 36°52' W 076°20'1 0.1
2016-Aug-23 02:33N 36°53' W 076°20'4 3.6
2016-Aug-23 01:25N 36°50' W 076°16'1 0.7
2016-Aug-23 00:33N 36°50' W 076°16'1 0.7
2016-Aug-22 23:24N 36°50' W 076°17'0 0.0
2016-Aug-22 22:33N 36°50' W 076°17'0 0.0
2016-Aug-22 21:30N 36°50' W 076°17'0 0.0
2016-Aug-22 20:32N 36°50' W 076°17'0 0.0
2016-Aug-22 19:32N 36°50' W 076°17'0 0.0
2016-Aug-22 18:29N 36°50' W 076°17'  
Track history (hours):
 
Tides and Currents Weather Stations Pressure Air Temp Water Temp Dewpoint Dewpoint Depression Visibility Wind Speed Wind Dir Waves Ship Positions

Fort Pike

Owner: Salisbury Towing Corporation, Chesapeak, VA. More information available from US FCC via Universal Licensing System and Coast Guard Vessel Documentation Center.

Last reported at 2016-Aug-27 08:32 UTC. Time now 2016-Aug-27 11:45 UTC.
Position N 38°05' W 076°30'.

Length 18 m; draft 10.5 m.

Type: Tug. MMSI: 366948310.

Date/timePositionNaut miles runAvg speedWind from/ knotsBaromVisibWave heightAir tempDewpointWater temp
2016-Aug-27 08:32N 38°05' W 076°30'6 6.2
2016-Aug-27 07:33N 38°02' W 076°23'79 1.9
2016-Aug-25 14:28N 39°20' W 076°12'6 6.7
2016-Aug-25 13:33N 39°23' W 076°06'5 5.3
2016-Aug-25 12:34N 39°28' W 076°03'5 5.1
2016-Aug-25 11:34N 39°33' W 076°04'0 0.0
2016-Aug-25 10:33N 39°33' W 076°04'0 0.0
2016-Aug-25 09:33N 39°33' W 076°04'0 0.1
2016-Aug-25 08:34N 39°33' W 076°04'0 0.0
2016-Aug-25 07:33N 39°33' W 076°04'0 0.4
2016-Aug-25 06:33N 39°33' W 076°05'11 5.5
2016-Aug-25 04:34N 39°22' W 076°08'9 7.6
2016-Aug-25 03:19N 39°14' W 076°15'72 6.6
2016-Aug-24 16:20N 38°02' W 076°17'5 6.5
2016-Aug-24 15:33N 38°01' W 076°23'8 1.4
2016-Aug-24 09:31N 38°06' W 076°32'8 7.9
2016-Aug-24 08:32N 38°02' W 076°24'70 6.4
2016-Aug-23 21:32N 36°51' W 076°19'2 1.5
2016-Aug-23 20:32N 36°50' W 076°17'0 0.0
2016-Aug-23 19:32N 36°50' W 076°17'0 0.0
2016-Aug-23 18:32N 36°50' W 076°17'0 0.0
2016-Aug-23 17:32N 36°50' W 076°17'0 0.0
2016-Aug-23 16:32N 36°50' W 076°17'1 1.1
2016-Aug-23 15:28N 36°49' W 076°17'1 1.2
2016-Aug-23 14:28N 36°50' W 076°17'1 1.1
2016-Aug-23 13:30N 36°50' W 076°16'3 3.4
2016-Aug-23 12:31N 36°52' W 076°20'1 0.1
2016-Aug-23 02:33N 36°53' W 076°20'4 3.6
2016-Aug-23 01:25N 36°50' W 076°16'1 0.7
2016-Aug-23 00:33N 36°50' W 076°16'1 0.7
2016-Aug-22 23:24N 36°50' W 076°17'0 0.0
2016-Aug-22 22:33N 36°50' W 076°17'0 0.0
2016-Aug-22 21:30N 36°50' W 076°17'0 0.0
2016-Aug-22 20:32N 36°50' W 076°17'0 0.0
2016-Aug-22 19:32N 36°50' W 076°17'0 0.0
2016-Aug-22 18:29N 36°50' W 076°17'  

Dump ship's entire track history